Time;durP1;ratioP1;P1;durP2;ratioP2;P2;SDS_P1;SDS_P2;PMS_P1;PMS_P2;Temp;Humidity;BMP_temperature;BMP_pressure;BME280_temperature;BME280_humidity;BME280_pressure;Samples;Min_cycle;Max_cycle;Signal;HPM_P1;HPM_P2
2021/04/29 00:00:20;;;;;;;7.53;5.30;;;;;;;;;;5112290;27;20038;-75
2021/04/29 00:02:47;;;;;;;7.07;5.28;;;;;;;;;;5112288;28;20027;-74
2021/04/29 00:05:14;;;;;;;9.50;5.53;;;;;;;;;;5111986;27;20123;-75
2021/04/29 00:07:41;;;;;;;8.88;5.15;;;;;;;;;;5112272;27;20024;-75
2021/04/29 00:10:08;;;;;;;7.18;5.05;;;;;;;;;;5112359;28;20043;-74
2021/04/29 00:12:35;;;;;;;8.32;5.53;;;;;;;;;;5119463;27;20031;-76
2021/04/29 00:15:01;;;;;;;8.60;5.27;;;;;;;;;;5111710;27;20016;-76
2021/04/29 00:17:27;;;;;;;7.75;5.10;;;;;;;;;;5111984;28;20024;-75
2021/04/29 00:19:53;;;;;;;9.13;5.03;;;;;;;;;;5111896;28;20031;-76
2021/04/29 00:22:19;;;;;;;9.98;5.00;;;;;;;;;;5112415;28;20042;-75
2021/04/29 00:24:45;;;;;;;7.55;4.93;;;;;;;;;;5111778;27;20031;-75
2021/04/29 00:27:11;;;;;;;6.82;4.80;;;;;;;;;;5111288;27;20454;-76
2021/04/29 00:29:37;;;;;;;8.73;5.50;;;;;;;;;;5111469;28;20134;-76
2021/04/29 00:32:03;;;;;;;8.32;5.50;;;;;;;;;;5112054;28;20820;-75
2021/04/29 00:34:29;;;;;;;8.38;5.25;;;;;;;;;;5111213;28;20035;-76
2021/04/29 00:36:55;;;;;;;7.03;5.18;;;;;;;;;;5115499;27;20031;-76
2021/04/29 00:39:23;;;;;;;6.68;5.47;;;;;;;;;;5127243;27;20084;-76
2021/04/29 00:41:49;;;;;;;7.50;5.68;;;;;;;;;;5111855;28;20084;-76
2021/04/29 00:44:15;;;;;;;7.60;5.15;;;;;;;;;;5111487;28;20385;-76
2021/04/29 00:46:41;;;;;;;7.75;5.40;;;;;;;;;;5111469;27;20031;-76
2021/04/29 00:49:07;;;;;;;7.15;5.22;;;;;;;;;;5109270;28;20069;-75
2021/04/29 00:51:33;;;;;;;8.05;5.20;;;;;;;;;;5112022;27;20037;-74
2021/04/29 00:53:59;;;;;;;8.27;5.32;;;;;;;;;;5111752;27;20371;-76
2021/04/29 00:56:25;;;;;;;7.20;5.00;;;;;;;;;;5111272;28;20023;-76
2021/04/29 00:58:51;;;;;;;7.20;4.83;;;;;;;;;;5111147;27;20032;-76
2021/04/29 01:01:18;;;;;;;8.03;4.80;;;;;;;;;;5110366;28;20030;-75
2021/04/29 01:03:58;;;;;;;7.23;5.40;;;;;;;;;;5111198;28;20031;-74
2021/04/29 01:06:40;;;;;;;8.52;5.45;;;;;;;;;;5111119;28;20048;-75
2021/04/29 01:09:09;;;;;;;7.07;5.40;;;;;;;;;;5110902;27;20043;-75
2021/04/29 01:11:37;;;;;;;8.05;5.28;;;;;;;;;;5110979;28;20047;-74
2021/04/29 01:14:04;;;;;;;13.13;6.70;;;;;;;;;;5111119;28;20028;-75
2021/04/29 01:16:31;;;;;;;9.07;5.85;;;;;;;;;;5111284;28;20163;-75
2021/04/29 01:18:58;;;;;;;8.38;5.18;;;;;;;;;;5110573;27;20032;-75
2021/04/29 01:21:28;;;;;;;9.98;5.85;;;;;;;;;;5111077;28;20122;-74
2021/04/29 01:24:12;;;;;;;7.90;5.60;;;;;;;;;;5100501;28;20052;-74
2021/04/29 01:26:44;;;;;;;8.38;5.22;;;;;;;;;;5110859;28;20030;-73
2021/04/29 01:29:11;;;;;;;8.88;5.32;;;;;;;;;;5109484;28;20392;-75
2021/04/29 01:31:39;;;;;;;8.02;5.45;;;;;;;;;;5110699;28;20457;-76
2021/04/29 01:34:06;;;;;;;9.20;5.50;;;;;;;;;;5126542;28;20045;-75
2021/04/29 01:36:33;;;;;;;8.75;5.60;;;;;;;;;;5119079;28;20072;-75
2021/04/29 01:38:59;;;;;;;9.20;5.40;;;;;;;;;;5112570;27;20507;-76
2021/04/29 01:41:26;;;;;;;7.43;5.15;;;;;;;;;;5130184;28;20083;-75
2021/04/29 01:43:53;;;;;;;8.50;5.30;;;;;;;;;;5108945;28;20028;-75
2021/04/29 01:46:19;;;;;;;6.97;5.20;;;;;;;;;;5110777;28;20401;-74
2021/04/29 01:48:46;;;;;;;7.00;4.68;;;;;;;;;;5110568;27;20036;-77
2021/04/29 01:51:12;;;;;;;6.35;5.07;;;;;;;;;;5113844;28;20024;-77
2021/04/29 01:53:40;;;;;;;8.50;4.93;;;;;;;;;;5116226;27;20110;-75
2021/04/29 01:56:06;;;;;;;10.55;4.93;;;;;;;;;;5135263;27;20461;-74
2021/04/29 01:58:32;;;;;;;7.28;4.97;;;;;;;;;;5135312;27;20167;-75
2021/04/29 02:01:00;;;;;;;11.35;5.43;;;;;;;;;;5128278;27;20492;-76
2021/04/29 02:03:26;;;;;;;11.98;5.13;;;;;;;;;;5114533;27;20114;-76
2021/04/29 02:05:52;;;;;;;8.18;5.43;;;;;;;;;;5114650;28;20477;-76
2021/04/29 02:08:18;;;;;;;9.18;4.75;;;;;;;;;;5121152;27;20026;-76
2021/04/29 02:10:44;;;;;;;8.95;4.90;;;;;;;;;;5135262;27;20477;-75
2021/04/29 02:13:12;;;;;;;8.15;4.88;;;;;;;;;;5130397;27;20011;-75
2021/04/29 02:15:40;;;;;;;9.25;5.50;;;;;;;;;;5114248;28;20035;-77
2021/04/29 02:18:08;;;;;;;11.10;4.85;;;;;;;;;;5110766;28;20020;-77
2021/04/29 02:20:36;;;;;;;7.18;4.70;;;;;;;;;;5114476;27;20042;-76
2021/04/29 02:23:05;;;;;;;6.30;4.40;;;;;;;;;;5113996;28;20026;-74
2021/04/29 02:25:31;;;;;;;7.20;4.30;;;;;;;;;;5114532;28;20020;-75
2021/04/29 02:27:58;;;;;;;7.65;4.90;;;;;;;;;;5114189;27;20028;-76
2021/04/29 02:30:25;;;;;;;6.90;4.95;;;;;;;;;;5113430;27;20032;-75
2021/04/29 02:32:51;;;;;;;6.15;4.82;;;;;;;;;;5114456;28;20505;-76
2021/04/29 02:35:18;;;;;;;7.35;4.78;;;;;;;;;;5114091;28;20122;-76
2021/04/29 02:37:45;;;;;;;6.95;4.80;;;;;;;;;;5113522;28;20039;-75
2021/04/29 02:40:12;;;;;;;7.00;4.50;;;;;;;;;;5113992;28;20381;-76
2021/04/29 02:42:38;;;;;;;;;;;;;;;;;;5114476;27;20558;-75
2021/04/29 02:45:04;;;;;;;9.67;4.97;;;;;;;;;;5126658;27;19911;-74
2021/04/29 02:47:30;;;;;;;6.20;4.60;;;;;;;;;;5126482;27;20027;-76
2021/04/29 02:49:56;;;;;;;5.60;4.28;;;;;;;;;;5113599;28;20031;-75
2021/04/29 02:52:22;;;;;;;6.70;4.88;;;;;;;;;;5113268;27;20039;-75
2021/04/29 02:54:48;;;;;;;6.30;4.95;;;;;;;;;;5113299;28;20032;-74
2021/04/29 02:57:21;;;;;;;6.30;4.63;;;;;;;;;;5112930;28;20485;-74
2021/04/29 02:59:47;;;;;;;6.25;4.40;;;;;;;;;;5113292;28;20544;-75
2021/04/29 03:02:13;;;;;;;7.53;4.97;;;;;;;;;;5111857;27;20096;-76
2021/04/29 03:04:39;;;;;;;6.35;4.25;;;;;;;;;;5113268;28;20024;-77
2021/04/29 03:07:05;;;;;;;5.57;4.22;;;;;;;;;;5112848;28;20027;-75
2021/04/29 03:09:31;;;;;;;6.68;4.75;;;;;;;;;;5113259;28;20432;-76
2021/04/29 03:11:57;;;;;;;11.23;4.80;;;;;;;;;;5113097;27;20102;-75
2021/04/29 03:14:23;;;;;;;7.45;4.57;;;;;;;;;;5113114;28;20760;-75
2021/04/29 03:16:49;;;;;;;9.70;4.60;;;;;;;;;;5112474;28;20031;-76
2021/04/29 03:19:15;;;;;;;7.13;4.68;;;;;;;;;;5113334;28;20036;-75
2021/04/29 03:21:41;;;;;;;8.77;4.80;;;;;;;;;;5113108;28;20022;-75
2021/04/29 03:24:07;;;;;;;7.25;4.45;;;;;;;;;;5112025;27;20036;-76
2021/04/29 03:26:33;;;;;;;6.37;4.63;;;;;;;;;;5112833;28;20027;-76
2021/04/29 03:28:59;;;;;;;5.88;4.50;;;;;;;;;;5112596;28;20338;-76
2021/04/29 03:31:25;;;;;;;9.27;5.07;;;;;;;;;;5112611;28;20427;-74
2021/04/29 03:33:52;;;;;;;7.07;4.40;;;;;;;;;;5112067;27;20117;-74
2021/04/29 03:36:18;;;;;;;6.70;4.60;;;;;;;;;;5112889;27;20147;-74
2021/04/29 03:38:44;;;;;;;6.68;4.47;;;;;;;;;;5112162;28;20035;-74
2021/04/29 03:41:10;;;;;;;6.45;4.35;;;;;;;;;;5112639;28;20538;-76
2021/04/29 03:43:36;;;;;;;6.20;4.38;;;;;;;;;;5111978;27;20047;-75
2021/04/29 03:46:02;;;;;;;7.30;4.60;;;;;;;;;;5112244;28;20020;-75
2021/04/29 03:48:28;;;;;;;5.97;4.55;;;;;;;;;;5112257;28;20043;-76
2021/04/29 03:50:54;;;;;;;6.43;4.70;;;;;;;;;;5112694;28;20377;-73
2021/04/29 03:53:20;;;;;;;6.57;4.35;;;;;;;;;;5112383;27;20039;-73
2021/04/29 03:55:46;;;;;;;6.07;4.38;;;;;;;;;;5111571;28;20423;-74
2021/04/29 03:58:11;;;;;;;5.65;4.38;;;;;;;;;;5111922;28;20023;-73
2021/04/29 04:00:37;;;;;;;9.38;4.32;;;;;;;;;;5112010;28;20031;-75
2021/04/29 04:03:03;;;;;;;7.22;4.47;;;;;;;;;;5111922;27;20306;-74
2021/04/29 04:05:29;;;;;;;5.45;4.28;;;;;;;;;;5111770;27;20043;-74
2021/04/29 04:07:55;;;;;;;7.72;4.25;;;;;;;;;;5112154;28;20024;-74
2021/04/29 04:10:21;;;;;;;5.28;4.22;;;;;;;;;;5110385;28;20118;-73
2021/04/29 04:12:47;;;;;;;6.55;4.13;;;;;;;;;;5110679;28;20394;-76
2021/04/29 04:15:13;;;;;;;6.95;4.55;;;;;;;;;;5111746;27;20131;-76
2021/04/29 04:17:39;;;;;;;7.88;4.05;;;;;;;;;;5111459;28;20027;-76
2021/04/29 04:20:06;;;;;;;6.10;4.40;;;;;;;;;;5112081;28;20016;-76
2021/04/29 04:22:32;;;;;;;5.50;4.23;;;;;;;;;;5111484;28;20555;-75
2021/04/29 04:24:58;;;;;;;5.80;4.15;;;;;;;;;;5111244;27;20127;-76
2021/04/29 04:27:24;;;;;;;5.15;4.07;;;;;;;;;;5111540;28;20027;-75
2021/04/29 04:29:50;;;;;;;6.78;4.20;;;;;;;;;;5111165;28;20050;-75
2021/04/29 04:32:16;;;;;;;7.40;4.55;;;;;;;;;;5110232;28;20026;-75
2021/04/29 04:34:42;;;;;;;7.30;4.22;;;;;;;;;;5111215;27;20517;-74
2021/04/29 04:37:08;;;;;;;6.32;4.10;;;;;;;;;;5111035;28;20103;-74
2021/04/29 04:39:35;;;;;;;5.68;4.30;;;;;;;;;;5110829;28;20435;-75
2021/04/29 04:42:02;;;;;;;5.15;3.95;;;;;;;;;;5111167;28;20027;-74
2021/04/29 04:44:28;;;;;;;5.83;4.20;;;;;;;;;;5111128;28;20073;-74
2021/04/29 04:46:54;;;;;;;6.70;3.83;;;;;;;;;;5110554;27;20396;-74
2021/04/29 04:49:19;;;;;;;5.55;4.20;;;;;;;;;;5098050;28;20035;-74
2021/04/29 04:51:47;;;;;;;5.18;3.95;;;;;;;;;;5110813;28;20027;-74
2021/04/29 04:54:13;;;;;;;5.07;4.20;;;;;;;;;;5110682;28;20030;-74
2021/04/29 04:56:39;;;;;;;6.97;4.40;;;;;;;;;;5115655;27;20035;-74
2021/04/29 04:59:05;;;;;;;5.60;4.05;;;;;;;;;;5093099;28;20471;-74
2021/04/29 05:01:31;;;;;;;5.05;3.88;;;;;;;;;;5109097;27;20030;-76
2021/04/29 05:03:57;;;;;;;6.53;4.43;;;;;;;;;;5110220;28;20027;-76
2021/04/29 05:06:23;;;;;;;4.82;3.83;;;;;;;;;;5105177;27;20036;-75
2021/04/29 05:08:49;;;;;;;7.82;3.95;;;;;;;;;;5108123;28;20031;-75
2021/04/29 05:11:15;;;;;;;5.28;4.15;;;;;;;;;;5110851;27;20092;-75
2021/04/29 05:13:41;;;;;;;9.05;3.92;;;;;;;;;;5110708;28;20059;-76
2021/04/29 05:16:07;;;;;;;6.43;4.00;;;;;;;;;;5106806;27;20032;-75
2021/04/29 05:18:33;;;;;;;7.18;3.80;;;;;;;;;;5110761;28;20088;-75
2021/04/29 05:20:59;;;;;;;14.13;4.10;;;;;;;;;;5110687;28;20059;-75
2021/04/29 05:23:25;;;;;;;5.93;4.30;;;;;;;;;;5110951;28;20016;-75
2021/04/29 05:25:51;;;;;;;8.50;3.80;;;;;;;;;;5110105;27;20106;-75
2021/04/29 05:28:17;;;;;;;8.57;4.00;;;;;;;;;;5109851;28;20572;-75
2021/04/29 05:30:43;;;;;;;9.35;3.50;;;;;;;;;;5110385;28;20063;-74
2021/04/29 05:33:09;;;;;;;11.77;7.20;;;;;;;;;;5098541;28;20051;-75
2021/04/29 05:35:35;;;;;;;12.50;7.80;;;;;;;;;;5104456;28;20118;-73
2021/04/29 05:38:01;;;;;;;11.15;8.32;;;;;;;;;;5108243;27;20565;-75
2021/04/29 05:40:27;;;;;;;18.33;15.90;;;;;;;;;;5104359;28;20034;-76
2021/04/29 05:42:53;;;;;;;23.48;18.13;;;;;;;;;;5110782;28;20047;-77
2021/04/29 05:45:19;;;;;;;20.90;17.98;;;;;;;;;;5110911;28;20073;-76
2021/04/29 05:47:45;;;;;;;19.98;17.77;;;;;;;;;;5110269;28;20530;-74
2021/04/29 05:50:11;;;;;;;21.88;18.52;;;;;;;;;;5105596;28;20032;-74
2021/04/29 05:52:38;;;;;;;20.15;16.02;;;;;;;;;;5102181;28;20106;-75
2021/04/29 05:55:04;;;;;;;24.15;18.83;;;;;;;;;;5090886;28;20027;-74
2021/04/29 05:57:30;;;;;;;20.20;17.27;;;;;;;;;;5090328;28;20051;-74
2021/04/29 05:59:56;;;;;;;22.48;18.60;;;;;;;;;;5106772;28;20364;-74
2021/04/29 06:02:22;;;;;;;22.17;18.90;;;;;;;;;;5092563;28;20020;-74
2021/04/29 06:04:48;;;;;;;19.95;17.83;;;;;;;;;;5090207;28;20531;-74
2021/04/29 06:07:14;;;;;;;21.70;19.27;;;;;;;;;;5091316;28;20033;-74
2021/04/29 06:09:41;;;;;;;20.58;17.60;;;;;;;;;;5102205;28;20028;-74
2021/04/29 06:12:07;;;;;;;22.80;19.97;;;;;;;;;;5124385;27;20019;-74
2021/04/29 06:14:33;;;;;;;18.63;16.60;;;;;;;;;;5129860;28;20365;-75
2021/04/29 06:16:59;;;;;;;22.98;19.77;;;;;;;;;;5096850;27;20450;-73
2021/04/29 06:19:25;;;;;;;19.92;16.90;;;;;;;;;;5089324;28;20039;-74
2021/04/29 06:21:51;;;;;;;19.17;16.40;;;;;;;;;;5090144;28;21959;-75
2021/04/29 06:24:17;;;;;;;20.05;17.48;;;;;;;;;;5090074;28;20028;-75
2021/04/29 06:26:43;;;;;;;21.23;17.90;;;;;;;;;;5103744;28;20457;-74
2021/04/29 06:29:09;;;;;;;20.58;18.35;;;;;;;;;;5109412;27;20058;-75
2021/04/29 06:31:37;;;;;;;19.92;17.65;;;;;;;;;;5108292;28;20023;-76
2021/04/29 06:34:03;;;;;;;18.98;16.98;;;;;;;;;;5110394;28;20419;-75
2021/04/29 06:36:30;;;;;;;19.98;17.60;;;;;;;;;;5111648;28;20035;-75
2021/04/29 06:38:56;;;;;;;23.10;20.02;;;;;;;;;;5113678;27;20100;-75
2021/04/29 06:41:22;;;;;;;21.88;17.38;;;;;;;;;;5113737;28;20462;-74
2021/04/29 06:43:48;;;;;;;20.35;17.45;;;;;;;;;;5113958;28;20024;-75
2021/04/29 06:46:14;;;;;;;19.77;17.00;;;;;;;;;;5113656;28;20053;-74
2021/04/29 06:48:40;;;;;;;20.38;17.60;;;;;;;;;;5113389;27;20129;-74
2021/04/29 06:51:07;;;;;;;18.23;16.30;;;;;;;;;;5113525;28;20367;-73
2021/04/29 06:53:33;;;;;;;19.60;17.57;;;;;;;;;;5113700;28;20458;-74
2021/04/29 06:55:59;;;;;;;19.02;16.88;;;;;;;;;;5113998;28;20020;-75
2021/04/29 06:58:27;;;;;;;17.75;15.65;;;;;;;;;;5113378;27;20039;-74
2021/04/29 07:00:53;;;;;;;19.42;17.35;;;;;;;;;;5113025;28;20076;-74
2021/04/29 07:03:19;;;;;;;18.60;16.48;;;;;;;;;;5113727;27;20031;-74
2021/04/29 07:05:45;;;;;;;17.38;15.57;;;;;;;;;;5113398;28;20424;-74
2021/04/29 07:08:12;;;;;;;15.55;13.63;;;;;;;;;;5112693;28;20031;-74
2021/04/29 07:10:39;;;;;;;16.10;14.40;;;;;;;;;;5112558;27;20173;-74
2021/04/29 07:13:05;;;;;;;17.45;15.57;;;;;;;;;;5113346;28;20108;-73
2021/04/29 07:15:31;;;;;;;16.63;14.75;;;;;;;;;;5113301;27;20023;-74
2021/04/29 07:18:00;;;;;;;15.27;13.13;;;;;;;;;;5112804;27;20024;-74
2021/04/29 07:20:28;;;;;;;16.25;14.20;;;;;;;;;;5112621;28;20035;-74
2021/04/29 07:22:53;;;;;;;;;;;;;;;;;;5113649;28;20027;-73
2021/04/29 07:25:19;;;;;;;14.07;12.53;;;;;;;;;;5113041;28;20330;-74
2021/04/29 07:27:45;;;;;;;14.32;12.73;;;;;;;;;;5129594;27;20034;-73
2021/04/29 07:30:12;;;;;;;14.55;13.02;;;;;;;;;;5132830;27;20492;-73
2021/04/29 07:32:37;;;;;;;15.80;13.90;;;;;;;;;;5130895;27;20051;-72
2021/04/29 07:35:04;;;;;;;16.45;14.43;;;;;;;;;;5112863;28;20828;-73
2021/04/29 07:37:30;;;;;;;19.58;16.05;;;;;;;;;;5112612;28;20423;-74
2021/04/29 07:39:56;;;;;;;19.60;16.20;;;;;;;;;;5112468;27;20122;-73
2021/04/29 07:42:22;;;;;;;21.63;16.33;;;;;;;;;;5111597;28;20127;-73
2021/04/29 07:44:48;;;;;;;18.23;16.23;;;;;;;;;;5112633;28;20507;-73
2021/04/29 07:47:14;;;;;;;17.52;15.63;;;;;;;;;;5112414;28;20347;-74
2021/04/29 07:49:40;;;;;;;17.48;14.07;;;;;;;;;;5092617;28;20044;-73
2021/04/29 07:52:06;;;;;;;23.00;17.63;;;;;;;;;;5095028;28;20055;-74
2021/04/29 07:54:32;;;;;;;26.30;19.27;;;;;;;;;;5111047;28;20458;-74
2021/04/29 07:56:58;;;;;;;29.90;19.60;;;;;;;;;;5105706;28;20020;-73
2021/04/29 07:59:24;;;;;;;31.52;19.25;;;;;;;;;;5104652;27;20027;-73
2021/04/29 08:01:50;;;;;;;36.13;20.17;;;;;;;;;;5112545;27;20072;-73
2021/04/29 08:04:16;;;;;;;33.03;18.75;;;;;;;;;;5111956;28;20581;-72
2021/04/29 08:06:42;;;;;;;26.55;17.15;;;;;;;;;;5112223;28;20362;-74
2021/04/29 08:09:09;;;;;;;31.08;18.33;;;;;;;;;;5111795;28;20033;-72
2021/04/29 08:11:35;;;;;;;27.52;18.75;;;;;;;;;;5110904;27;20043;-74
2021/04/29 08:14:01;;;;;;;28.73;18.33;;;;;;;;;;5112034;28;20024;-74
2021/04/29 08:16:27;;;;;;;27.98;18.50;;;;;;;;;;5111263;28;20098;-74
2021/04/29 08:18:53;;;;;;;23.58;16.98;;;;;;;;;;5116493;27;20038;-74
2021/04/29 08:21:19;;;;;;;25.05;16.67;;;;;;;;;;5113430;27;20044;-74
2021/04/29 08:23:45;;;;;;;22.88;16.20;;;;;;;;;;5111862;27;20032;-73
2021/04/29 08:26:11;;;;;;;25.35;16.30;;;;;;;;;;5112694;28;20034;-74
2021/04/29 08:28:37;;;;;;;23.20;16.77;;;;;;;;;;5111519;28;20088;-74
2021/04/29 08:31:03;;;;;;;22.73;16.55;;;;;;;;;;5111047;27;20046;-74
2021/04/29 08:33:29;;;;;;;22.05;16.77;;;;;;;;;;5111653;28;20035;-73
2021/04/29 08:35:55;;;;;;;22.38;16.63;;;;;;;;;;5111843;28;20072;-74
2021/04/29 08:38:21;;;;;;;22.30;14.70;;;;;;;;;;5111630;28;20023;-74
2021/04/29 08:40:47;;;;;;;20.88;15.18;;;;;;;;;;5110798;27;20486;-74
2021/04/29 08:43:13;;;;;;;19.80;15.15;;;;;;;;;;5114990;27;20047;-74
2021/04/29 08:45:44;;;;;;;17.90;14.32;;;;;;;;;;5122402;27;20065;-74
2021/04/29 08:48:11;;;;;;;19.08;14.40;;;;;;;;;;5131641;27;20496;-73
2021/04/29 08:50:37;;;;;;;18.45;14.95;;;;;;;;;;5131987;27;20027;-74
2021/04/29 08:53:03;;;;;;;19.30;14.65;;;;;;;;;;5115471;27;20036;-75
2021/04/29 08:55:29;;;;;;;17.70;13.98;;;;;;;;;;5109274;28;20040;-76
2021/04/29 08:57:55;;;;;;;14.80;12.93;;;;;;;;;;5110986;28;20041;-75
2021/04/29 09:00:23;;;;;;;16.33;13.38;;;;;;;;;;5106798;28;20090;-75
2021/04/29 09:02:49;;;;;;;17.67;13.65;;;;;;;;;;5110676;27;20036;-75
2021/04/29 09:05:23;;;;;;;16.15;13.52;;;;;;;;;;5111098;27;20527;-73
2021/04/29 09:07:59;;;;;;;17.15;13.30;;;;;;;;;;5111161;28;20466;-74
2021/04/29 09:10:35;;;;;;;15.15;12.90;;;;;;;;;;5088916;28;20036;-74
2021/04/29 09:13:01;;;;;;;16.08;12.25;;;;;;;;;;5094335;28;20039;-73
2021/04/29 09:15:33;;;;;;;15.95;14.00;;;;;;;;;;5110668;28;20473;-75
2021/04/29 09:18:09;;;;;;;15.63;13.00;;;;;;;;;;5110579;28;20055;-74
2021/04/29 09:20:36;;;;;;;14.60;12.95;;;;;;;;;;5110201;28;20028;-74
2021/04/29 09:23:05;;;;;;;17.50;13.50;;;;;;;;;;5105853;28;20093;-74
2021/04/29 09:25:32;;;;;;;15.70;12.93;;;;;;;;;;5110355;28;20016;-75
2021/04/29 09:27:59;;;;;;;15.63;12.32;;;;;;;;;;5110674;28;20028;-74
2021/04/29 09:30:25;;;;;;;14.40;12.38;;;;;;;;;;5101548;28;20131;-74
2021/04/29 09:32:52;;;;;;;15.10;13.00;;;;;;;;;;5089864;28;20066;-74
2021/04/29 09:35:19;;;;;;;14.65;13.15;;;;;;;;;;5093314;28;20050;-74
2021/04/29 09:37:45;;;;;;;17.58;13.30;;;;;;;;;;5097339;28;20051;-74
2021/04/29 09:40:43;;;;;;;16.73;11.52;;;;;;;;;;5110082;28;20027;-75
2021/04/29 09:43:09;;;;;;;14.38;10.05;;;;;;;;;;5110344;27;20630;-75
2021/04/29 09:45:37;;;;;;;11.27;9.27;;;;;;;;;;5117284;28;20027;-75
2021/04/29 09:48:13;;;;;;;10.02;8.77;;;;;;;;;;5129982;27;20022;-75
2021/04/29 09:50:40;;;;;;;9.70;8.43;;;;;;;;;;5090092;28;20402;-75
2021/04/29 09:53:08;;;;;;;11.18;8.35;;;;;;;;;;5088037;28;20524;-75
2021/04/29 09:55:35;;;;;;;9.95;7.53;;;;;;;;;;5099632;28;20043;-74
2021/04/29 09:58:02;;;;;;;11.85;6.80;;;;;;;;;;5108654;28;20032;-77
2021/04/29 10:00:28;;;;;;;7.85;5.60;;;;;;;;;;5104126;28;20458;-75
2021/04/29 10:02:54;;;;;;;9.82;5.57;;;;;;;;;;5089861;28;20028;-75
2021/04/29 10:05:20;;;;;;;7.82;5.60;;;;;;;;;;5089815;28;20375;-75
2021/04/29 10:07:46;;;;;;;8.67;5.40;;;;;;;;;;5090137;28;20478;-74
2021/04/29 10:10:12;;;;;;;7.57;4.68;;;;;;;;;;5089665;28;20328;-75
2021/04/29 10:12:39;;;;;;;7.63;4.85;;;;;;;;;;5093706;28;20020;-75
2021/04/29 10:15:06;;;;;;;7.38;4.65;;;;;;;;;;5092345;28;20043;-74
2021/04/29 10:17:32;;;;;;;7.57;4.80;;;;;;;;;;5093849;28;20027;-74
2021/04/29 10:20:00;;;;;;;5.85;4.55;;;;;;;;;;5093473;28;20028;-74
2021/04/29 10:22:27;;;;;;;6.38;4.60;;;;;;;;;;5093756;28;20047;-74
2021/04/29 10:24:53;;;;;;;5.97;4.10;;;;;;;;;;5092291;28;20070;-76
2021/04/29 10:27:23;;;;;;;6.47;4.57;;;;;;;;;;5093833;28;20024;-75
2021/04/29 10:29:49;;;;;;;8.43;4.68;;;;;;;;;;5092801;28;20065;-75
2021/04/29 10:32:16;;;;;;;6.18;4.30;;;;;;;;;;5094284;28;20241;-74
2021/04/29 10:34:45;;;;;;;;;;;;;;;;;;5093665;28;20811;-74
2021/04/29 10:37:15;;;;;;;6.78;4.70;;;;;;;;;;5093151;28;19904;-74
2021/04/29 10:39:52;;;;;;;6.53;4.63;;;;;;;;;;5093487;28;20024;-74
2021/04/29 10:42:18;;;;;;;6.63;4.50;;;;;;;;;;5093677;28;20035;-74
2021/04/29 10:44:57;;;;;;;4.65;3.92;;;;;;;;;;5093103;28;20044;-74
2021/04/29 10:47:24;;;;;;;4.80;3.90;;;;;;;;;;5103892;28;20034;-78
2021/04/29 10:49:51;;;;;;;10.15;3.95;;;;;;;;;;5099966;28;20112;-74
2021/04/29 10:52:17;;;;;;;5.32;4.20;;;;;;;;;;5101410;28;20028;-74
2021/04/29 10:54:50;;;;;;;6.45;4.40;;;;;;;;;;5111650;27;20035;-73
2021/04/29 10:57:17;;;;;;;6.55;4.30;;;;;;;;;;5111508;28;20488;-74
2021/04/29 10:59:51;;;;;;;4.53;4.03;;;;;;;;;;5092678;28;20465;-74
2021/04/29 11:02:26;;;;;;;6.18;4.10;;;;;;;;;;5094509;28;20470;-74
2021/04/29 11:04:52;;;;;;;6.57;4.03;;;;;;;;;;5103936;27;20474;-74
2021/04/29 11:07:19;;;;;;;7.35;4.30;;;;;;;;;;5112149;28;20024;-74
2021/04/29 11:09:56;;;;;;;6.72;4.35;;;;;;;;;;5112027;28;20509;-74
2021/04/29 11:12:22;;;;;;;;;;;;;;;;;;5113212;28;20027;-74
2021/04/29 11:14:48;;;;;;;6.97;4.20;;;;;;;;;;5112699;27;19904;-74
2021/04/29 11:17:21;;;;;;;6.22;4.18;;;;;;;;;;5115628;27;20024;-73
2021/04/29 11:19:56;;;;;;;5.07;4.10;;;;;;;;;;5115121;27;20491;-73
2021/04/29 11:22:30;;;;;;;5.43;3.72;;;;;;;;;;5120022;27;20027;-73
2021/04/29 11:24:56;;;;;;;6.80;4.20;;;;;;;;;;5113050;28;20447;-74
2021/04/29 11:27:24;;;;;;;4.78;3.75;;;;;;;;;;5113330;28;20024;-74
2021/04/29 11:29:50;;;;;;;5.25;3.85;;;;;;;;;;5112263;28;20062;-74
2021/04/29 11:32:19;;;;;;;5.10;3.63;;;;;;;;;;5111702;28;20483;-75
2021/04/29 11:34:49;;;;;;;4.63;3.28;;;;;;;;;;5111191;28;20054;-74
2021/04/29 11:37:16;;;;;;;4.35;3.78;;;;;;;;;;5113164;28;20039;-75
2021/04/29 11:39:42;;;;;;;5.20;4.13;;;;;;;;;;5112319;28;20038;-74
2021/04/29 11:42:23;;;;;;;4.70;4.05;;;;;;;;;;5125101;27;20019;-74
2021/04/29 11:44:49;;;;;;;4.68;3.85;;;;;;;;;;5112611;28;20024;-74
2021/04/29 11:47:15;;;;;;;4.63;3.53;;;;;;;;;;5122375;27;20080;-74
2021/04/29 11:49:42;;;;;;;5.82;4.05;;;;;;;;;;5132956;27;20114;-74
2021/04/29 11:52:08;;;;;;;5.00;3.80;;;;;;;;;;5133126;27;20388;-74
2021/04/29 11:54:34;;;;;;;6.75;4.10;;;;;;;;;;5132635;27;20068;-74
2021/04/29 11:57:03;;;;;;;5.32;4.15;;;;;;;;;;5133278;27;20035;-74
2021/04/29 11:59:30;;;;;;;7.25;4.05;;;;;;;;;;5126990;27;20485;-73
2021/04/29 12:01:57;;;;;;;5.55;3.92;;;;;;;;;;5109798;28;20027;-73
2021/04/29 12:04:24;;;;;;;6.45;3.90;;;;;;;;;;5107617;28;20050;-72
2021/04/29 12:06:57;;;;;;;5.70;4.28;;;;;;;;;;5102764;27;20043;-74
2021/04/29 12:09:24;;;;;;;8.05;4.07;;;;;;;;;;5104924;28;20565;-74
2021/04/29 12:11:50;;;;;;;;;;;;;;;;;;5104534;28;20023;-74
2021/04/29 12:14:22;;;;;;;8.77;5.70;;;;;;;;;;5098536;28;20269;-73
2021/04/29 12:16:49;;;;;;;13.82;7.93;;;;;;;;;;5105955;27;20035;-73
2021/04/29 12:19:15;;;;;;;11.15;8.40;;;;;;;;;;5111807;28;20068;-73
2021/04/29 12:21:43;;;;;;;15.23;9.25;;;;;;;;;;5107287;27;20020;-73
2021/04/29 12:24:10;;;;;;;15.50;9.10;;;;;;;;;;5090172;28;20849;-74
2021/04/29 12:26:40;;;;;;;12.05;8.65;;;;;;;;;;5090534;28;20188;-73
2021/04/29 12:29:07;;;;;;;15.23;8.55;;;;;;;;;;5090856;28;20196;-73
2021/04/29 12:31:34;;;;;;;11.95;9.15;;;;;;;;;;5094606;28;20390;-73
2021/04/29 12:34:06;;;;;;;11.98;8.73;;;;;;;;;;5110868;28;20035;-73
2021/04/29 12:36:51;;;;;;;11.57;9.00;;;;;;;;;;5091296;28;20028;-73
2021/04/29 12:39:18;;;;;;;11.52;8.65;;;;;;;;;;5111412;27;20106;-73
2021/04/29 12:41:47;;;;;;;12.52;8.57;;;;;;;;;;5125981;27;20314;-73
2021/04/29 12:44:13;;;;;;;9.27;8.27;;;;;;;;;;5100829;28;20032;-73
2021/04/29 12:46:41;;;;;;;9.65;7.13;;;;;;;;;;5106629;28;20035;-72
2021/04/29 12:49:16;;;;;;;10.00;8.45;;;;;;;;;;5117523;27;20520;-74
2021/04/29 12:51:43;;;;;;;10.48;8.30;;;;;;;;;;5110684;28;20469;-73
2021/04/29 12:54:13;;;;;;;11.07;9.05;;;;;;;;;;5111399;28;20031;-73
2021/04/29 12:56:40;;;;;;;9.90;8.10;;;;;;;;;;5121379;27;20051;-73
2021/04/29 12:59:16;;;;;;;10.57;7.80;;;;;;;;;;5110069;28;20122;-72
2021/04/29 13:01:43;;;;;;;8.67;7.03;;;;;;;;;;5109584;28;20019;-72
2021/04/29 13:04:20;;;;;;;12.65;7.40;;;;;;;;;;5102918;28;20523;-73
2021/04/29 13:06:46;;;;;;;7.25;5.82;;;;;;;;;;5100942;28;20525;-72
2021/04/29 13:09:12;;;;;;;8.75;6.22;;;;;;;;;;5106626;27;20127;-72
2021/04/29 13:11:49;;;;;;;8.25;5.72;;;;;;;;;;5099989;28;20028;-73
2021/04/29 13:14:27;;;;;;;8.32;5.13;;;;;;;;;;5108580;28;20019;-73
2021/04/29 13:16:54;;;;;;;8.30;4.93;;;;;;;;;;5105935;28;20413;-73
2021/04/29 13:19:20;;;;;;;6.28;5.07;;;;;;;;;;5110798;27;20071;-72
2021/04/29 13:21:47;;;;;;;7.28;5.03;;;;;;;;;;5110032;28;20032;-72
2021/04/29 13:24:15;;;;;;;7.80;5.10;;;;;;;;;;5110765;28;20043;-73
2021/04/29 13:26:41;;;;;;;5.93;4.95;;;;;;;;;;5110728;28;20260;-73
2021/04/29 13:29:07;;;;;;;9.65;4.82;;;;;;;;;;5103724;28;20043;-73
2021/04/29 13:31:33;;;;;;;5.90;4.80;;;;;;;;;;5094714;28;20404;-73
2021/04/29 13:34:03;;;;;;;6.63;5.05;;;;;;;;;;5108329;28;20024;-73
2021/04/29 13:36:29;;;;;;;6.82;5.20;;;;;;;;;;5109357;28;20035;-75
2021/04/29 13:38:55;;;;;;;6.32;5.53;;;;;;;;;;5110372;27;20020;-77
2021/04/29 13:41:21;;;;;;;6.75;5.57;;;;;;;;;;5109289;28;20027;-76
2021/04/29 13:43:47;;;;;;;6.00;5.18;;;;;;;;;;5110393;28;20477;-75
2021/04/29 13:46:13;;;;;;;6.60;5.20;;;;;;;;;;5113407;28;20023;-76
2021/04/29 13:48:39;;;;;;;8.48;4.78;;;;;;;;;;5114818;28;20036;-76
2021/04/29 13:51:05;;;;;;;6.50;5.30;;;;;;;;;;5104836;27;20040;-76
2021/04/29 13:53:31;;;;;;;6.27;4.80;;;;;;;;;;5094709;28;20028;-76
2021/04/29 13:55:57;;;;;;;6.63;5.10;;;;;;;;;;5094956;28;20254;-76
2021/04/29 13:58:23;;;;;;;6.28;5.18;;;;;;;;;;5112564;28;20077;-76
2021/04/29 14:00:50;;;;;;;6.20;5.07;;;;;;;;;;5108355;27;20490;-77
2021/04/29 14:03:16;;;;;;;5.72;4.90;;;;;;;;;;5114490;28;20031;-76
2021/04/29 14:05:42;;;;;;;6.70;4.93;;;;;;;;;;5107764;28;20416;-76
2021/04/29 14:08:08;;;;;;;7.68;4.68;;;;;;;;;;5093865;28;20035;-75
2021/04/29 14:10:35;;;;;;;7.68;4.90;;;;;;;;;;5111883;27;20067;-76
2021/04/29 14:13:01;;;;;;;6.23;5.30;;;;;;;;;;5113984;28;20032;-74
2021/04/29 14:15:29;;;;;;;6.30;5.10;;;;;;;;;;5108684;28;20020;-74
2021/04/29 14:17:56;;;;;;;5.70;5.10;;;;;;;;;;5093498;28;20027;-74
2021/04/29 14:20:21;;;;;;;5.55;4.50;;;;;;;;;;5097382;28;20074;-75
2021/04/29 14:22:47;;;;;;;5.30;4.68;;;;;;;;;;5093953;28;20048;-74
2021/04/29 14:25:14;;;;;;;6.07;4.97;;;;;;;;;;5093974;28;20040;-74
2021/04/29 14:27:48;;;;;;;7.53;5.43;;;;;;;;;;5093747;28;20412;-74
2021/04/29 14:30:15;;;;;;;5.88;5.20;;;;;;;;;;5097546;28;20104;-74
2021/04/29 14:32:41;;;;;;;6.43;4.93;;;;;;;;;;5113490;27;20047;-75
2021/04/29 14:35:07;;;;;;;5.80;5.07;;;;;;;;;;5114006;28;20039;-73